Time;durP1;ratioP1;P1;durP2;ratioP2;P2;SDS_P1;SDS_P2;PMS_P1;PMS_P2;Temp;Humidity;BMP_temperature;BMP_pressure;BME280_temperature;BME280_humidity;BME280_pressure;Samples;Min_cycle;Max_cycle;Signal;HPM_P1;HPM_P2
2021/05/08 00:00:07;;;;;;;10.90;6.93;;;16.10;99.90;;;;;;5010820;28;20100;-78
2021/05/08 00:02:33;;;;;;;13.82;6.88;;;16.00;99.90;;;;;;5011047;28;20109;-79
2021/05/08 00:04:59;;;;;;;12.18;6.60;;;16.10;99.90;;;;;;5010825;28;20438;-79
2021/05/08 00:07:25;;;;;;;11.32;6.63;;;16.10;99.90;;;;;;5010561;28;20026;-79
2021/05/08 00:09:51;;;;;;;12.23;7.53;;;16.00;99.90;;;;;;5010641;28;20513;-80
2021/05/08 00:12:16;;;;;;;16.38;6.90;;;15.90;99.90;;;;;;5011631;28;20022;-81
2021/05/08 00:14:42;;;;;;;18.88;8.55;;;15.90;99.90;;;;;;5010511;28;20029;-77
2021/05/08 00:17:08;;;;;;;17.75;7.53;;;15.80;99.90;;;;;;5009692;28;20041;-79
2021/05/08 00:19:34;;;;;;;16.10;7.88;;;15.90;99.90;;;;;;5008354;28;20617;-80
2021/05/08 00:22:00;;;;;;;14.77;7.18;;;15.70;99.90;;;;;;5010845;28;20052;-80
2021/05/08 00:24:26;;;;;;;17.48;8.00;;;15.60;99.90;;;;;;5010907;28;20109;-78
2021/05/08 00:26:51;;;;;;;12.70;7.40;;;15.70;99.90;;;;;;5010524;28;20072;-80
2021/05/08 00:29:17;;;;;;;14.80;7.65;;;15.70;99.90;;;;;;5011406;28;20037;-80
2021/05/08 00:31:43;;;;;;;15.88;7.63;;;15.70;99.90;;;;;;5011504;28;20470;-76
2021/05/08 00:34:09;;;;;;;13.57;7.60;;;15.70;99.90;;;;;;5011343;28;20513;-78
2021/05/08 00:36:34;;;;;;;14.18;7.40;;;15.80;99.90;;;;;;5011078;28;20109;-78
2021/05/08 00:39:01;;;;;;;14.70;7.90;;;15.80;99.90;;;;;;5010234;28;20041;-82
2021/05/08 00:41:27;;;;;;;16.00;6.90;;;15.70;99.90;;;;;;5010509;28;20096;-80
2021/05/08 00:43:57;;;;;;;17.95;8.20;;;15.60;99.90;;;;;;5010934;28;20036;-79
2021/05/08 00:46:24;;;;;;;14.73;7.53;;;15.50;99.90;;;;;;5010676;28;20050;-78
2021/05/08 00:48:51;;;;;;;15.10;7.40;;;15.20;99.90;;;;;;5011157;28;20037;-78
2021/05/08 00:51:18;;;;;;;14.48;7.30;;;15.30;99.90;;;;;;5016669;28;20395;-79
2021/05/08 00:53:44;;;;;;;15.73;8.02;;;15.40;99.90;;;;;;5017065;28;20032;-81
2021/05/08 00:56:10;;;;;;;15.98;8.13;;;15.40;99.90;;;;;;5017393;28;20617;-82
2021/05/08 00:58:36;;;;;;;13.77;6.63;;;15.30;99.90;;;;;;5016776;28;20524;-79
2021/05/08 01:01:02;;;;;;;13.00;7.10;;;15.20;99.90;;;;;;5015877;28;20017;-80
2021/05/08 01:03:28;;;;;;;12.88;6.55;;;14.90;99.90;;;;;;5016774;28;20481;-80
2021/05/08 01:05:53;;;;;;;10.88;6.75;;;14.70;99.90;;;;;;5017015;28;20022;-81
2021/05/08 01:08:20;;;;;;;16.55;6.47;;;14.70;99.90;;;;;;5017000;28;20033;-79
2021/05/08 01:10:46;;;;;;;14.13;6.80;;;14.50;99.90;;;;;;5010843;28;20049;-78
2021/05/08 01:13:12;;;;;;;14.57;6.82;;;14.50;99.90;;;;;;5016975;28;20113;-77
2021/05/08 01:15:39;;;;;;;11.65;6.57;;;14.30;99.90;;;;;;5017035;28;20162;-80
2021/05/08 01:18:05;;;;;;;13.10;7.35;;;14.50;99.90;;;;;;5016946;28;20436;-79
2021/05/08 01:20:31;;;;;;;13.63;6.78;;;14.60;99.90;;;;;;5016754;28;20053;-79
2021/05/08 01:22:56;;;;;;;12.32;6.47;;;14.70;99.90;;;;;;5017455;28;20046;-80
2021/05/08 01:25:26;;;;;;;13.20;6.25;;;14.80;99.90;;;;;;5009485;28;20025;-81
2021/05/08 01:27:58;;;;;;;10.57;6.00;;;14.80;99.90;;;;;;5005280;28;20032;-79
2021/05/08 01:30:34;;;;;;;10.82;5.32;;;14.80;99.90;;;;;;4999436;28;20046;-81
2021/05/08 01:33:01;;;;;;;10.48;5.93;;;14.80;99.90;;;;;;4998458;28;20031;-81
2021/05/08 01:35:28;;;;;;;15.57;4.55;;;14.80;99.90;;;;;;4998220;28;20037;-78
2021/05/08 01:37:54;;;;;;;15.35;5.97;;;14.90;99.90;;;;;;4997548;28;20410;-77
2021/05/08 01:40:29;;;;;;;11.68;4.28;;;15.30;99.90;;;;;;4998754;28;20030;-80
2021/05/08 01:42:56;;;;;;;8.77;4.70;;;15.50;99.90;;;;;;5017736;28;20026;-79
2021/05/08 01:45:23;;;;;;;9.98;5.60;;;15.40;99.90;;;;;;5017713;28;20033;-80
2021/05/08 01:47:50;;;;;;;8.35;4.95;;;15.30;99.90;;;;;;5017939;28;20045;-80
2021/05/08 01:50:22;;;;;;;8.68;4.40;;;15.20;99.90;;;;;;5017803;28;20404;-82
2021/05/08 01:52:48;;;;;;;11.68;5.15;;;15.40;99.90;;;;;;5017531;28;20116;-79
2021/05/08 01:55:18;;;;;;;8.43;4.25;;;15.70;99.90;;;;;;5017664;28;20045;-80
2021/05/08 01:57:55;;;;;;;11.40;4.82;;;15.70;99.90;;;;;;5017539;28;20398;-80
2021/05/08 02:00:23;;;;;;;13.10;4.30;;;15.70;99.90;;;;;;5017548;28;20157;-82
2021/05/08 02:02:51;;;;;;;14.23;4.90;;;15.80;99.90;;;;;;5014225;28;20484;-82
2021/05/08 02:05:17;;;;;;;18.63;5.10;;;15.80;99.90;;;;;;5014609;28;20041;-81
2021/05/08 02:07:43;;;;;;;11.85;6.13;;;15.70;99.90;;;;;;5014123;28;20022;-79
2021/05/08 02:10:11;;;;;;;14.98;4.75;;;15.70;99.90;;;;;;5014614;28;20033;-78
2021/05/08 02:12:38;;;;;;;17.50;5.35;;;15.60;99.90;;;;;;5014049;28;20120;-77
2021/05/08 02:15:15;;;;;;;11.80;4.13;;;15.50;99.90;;;;;;4996233;28;20018;-79
2021/05/08 02:17:41;;;;;;;13.18;5.32;;;15.40;99.90;;;;;;4994216;28;20054;-81
2021/05/08 02:20:08;;;;;;;10.07;4.93;;;15.40;99.90;;;;;;4994328;28;20109;-80
2021/05/08 02:22:34;;;;;;;12.63;5.25;;;15.40;99.90;;;;;;4994378;28;20109;-80
2021/05/08 02:25:02;;;;;;;12.60;6.30;;;15.20;99.90;;;;;;4994713;28;20025;-80
2021/05/08 02:27:28;;;;;;;11.82;5.78;;;15.20;99.90;;;;;;4994183;28;20084;-79
2021/05/08 02:29:53;;;;;;;15.80;6.63;;;15.10;99.90;;;;;;4994558;28;20030;-80
2021/05/08 02:32:19;;;;;;;13.77;5.70;;;15.20;99.90;;;;;;4994680;28;20355;-78
2021/05/08 02:34:45;;;;;;;9.38;5.65;;;14.90;99.90;;;;;;4994445;28;20372;-82
2021/05/08 02:37:11;;;;;;;11.13;5.75;;;14.80;99.90;;;;;;5002480;28;20033;-82
2021/05/08 02:39:36;;;;;;;11.07;5.65;;;14.90;99.90;;;;;;5014187;28;20065;-81
2021/05/08 02:42:03;;;;;;;15.68;6.20;;;14.80;99.90;;;;;;5013914;28;20108;-80
2021/05/08 02:44:29;;;;;;;13.18;6.40;;;14.90;99.90;;;;;;5013923;28;20034;-81
2021/05/08 02:46:55;;;;;;;13.07;6.10;;;14.90;99.90;;;;;;5013871;28;20029;-80
2021/05/08 02:49:20;;;;;;;9.50;5.72;;;14.70;99.90;;;;;;4996036;28;20453;-82
2021/05/08 02:51:46;;;;;;;11.00;6.30;;;14.60;99.90;;;;;;5013331;28;20026;-81
2021/05/08 02:54:12;;;;;;;11.35;5.68;;;14.60;99.90;;;;;;5013435;28;20022;-76
2021/05/08 02:56:38;;;;;;;7.78;5.65;;;14.50;99.90;;;;;;5013534;28;20040;-81
2021/05/08 02:59:03;;;;;;;13.10;7.88;;;14.50;99.90;;;;;;5013244;28;20037;-79
2021/05/08 03:01:29;;;;;;;10.52;5.90;;;13.60;99.90;;;;;;5013470;28;20456;-79
2021/05/08 03:03:55;;;;;;;9.25;6.18;;;14.10;99.90;;;;;;5013657;28;20345;-80
2021/05/08 03:06:21;;;;;;;9.40;6.07;;;13.90;99.90;;;;;;5013070;28;20048;-81
2021/05/08 03:08:47;;;;;;;10.85;5.90;;;14.00;99.90;;;;;;5013402;28;20018;-78
2021/05/08 03:11:13;;;;;;;10.02;5.90;;;14.00;99.90;;;;;;5013348;28;20032;-79
2021/05/08 03:13:38;;;;;;;14.70;6.20;;;13.90;99.90;;;;;;5006472;28;20014;-80
2021/05/08 03:16:04;;;;;;;7.75;5.57;;;14.10;99.90;;;;;;4993568;28;20026;-75
2021/05/08 03:18:30;;;;;;;8.57;5.80;;;14.10;99.90;;;;;;4993724;28;20448;-77
2021/05/08 03:20:56;;;;;;;8.65;5.05;;;14.30;99.90;;;;;;4993421;28;20511;-78
2021/05/08 03:23:22;;;;;;;8.73;4.90;;;14.20;99.90;;;;;;4993257;28;20034;-77
2021/05/08 03:25:47;;;;;;;10.77;4.55;;;14.20;99.90;;;;;;4993398;28;20034;-80
2021/05/08 03:28:13;;;;;;;14.35;5.03;;;14.30;99.90;;;;;;4992864;28;20026;-79
2021/05/08 03:30:39;;;;;;;5.95;4.88;;;14.20;99.90;;;;;;4992957;28;20445;-77
2021/05/08 03:33:05;;;;;;;7.50;5.47;;;14.20;99.90;;;;;;4993201;28;20037;-79
2021/05/08 03:35:30;;;;;;;8.10;4.60;;;14.20;99.90;;;;;;4992907;28;20022;-78
2021/05/08 03:37:56;;;;;;;9.43;4.45;;;14.20;99.90;;;;;;4992672;28;20463;-80
2021/05/08 03:40:22;;;;;;;7.57;4.03;;;14.20;99.90;;;;;;4992913;28;20131;-80
2021/05/08 03:42:48;;;;;;;6.63;4.10;;;14.20;99.90;;;;;;4975504;28;20122;-79
2021/05/08 03:45:14;;;;;;;6.18;4.30;;;14.10;99.90;;;;;;4992400;28;20058;-79
2021/05/08 03:47:40;;;;;;;8.95;4.30;;;14.10;99.90;;;;;;4992831;28;20038;-80
2021/05/08 03:50:06;;;;;;;8.30;4.30;;;14.10;99.90;;;;;;4992877;28;20100;-80
2021/05/08 03:52:33;;;;;;;9.73;4.35;;;14.30;99.90;;;;;;4992537;28;20029;-79
2021/05/08 03:54:59;;;;;;;7.30;4.30;;;14.30;99.90;;;;;;4992446;28;20058;-81
2021/05/08 03:57:25;;;;;;;6.50;4.43;;;14.30;99.90;;;;;;4992709;28;20034;-78
2021/05/08 03:59:51;;;;;;;9.63;6.13;;;14.60;99.90;;;;;;4992382;28;20038;-78
2021/05/08 04:02:17;;;;;;;17.65;7.50;;;14.70;99.90;;;;;;4992185;28;20522;-78
2021/05/08 04:04:43;;;;;;;11.55;5.82;;;14.60;99.90;;;;;;4992523;28;20026;-78
2021/05/08 04:07:08;;;;;;;10.55;5.65;;;14.00;99.90;;;;;;4992443;28;20033;-79
2021/05/08 04:09:34;;;;;;;11.98;5.78;;;14.10;99.90;;;;;;4992110;28;20034;-79
2021/05/08 04:12:00;;;;;;;13.77;6.07;;;14.30;99.90;;;;;;4992086;28;20139;-80
2021/05/08 04:14:25;;;;;;;11.52;5.32;;;13.90;99.90;;;;;;5002054;28;20068;-79
2021/05/08 04:16:51;;;;;;;12.07;5.80;;;13.30;99.90;;;;;;5011550;28;20484;-78
2021/05/08 04:19:17;;;;;;;12.30;5.75;;;13.70;99.90;;;;;;5011399;28;20045;-79
2021/05/08 04:21:42;;;;;;;12.90;6.07;;;13.30;99.90;;;;;;5011846;28;20520;-80
2021/05/08 04:24:08;;;;;;;9.38;5.55;;;13.30;99.90;;;;;;5011176;28;20513;-79
2021/05/08 04:26:34;;;;;;;9.70;5.85;;;13.40;99.90;;;;;;5011714;28;20555;-77
2021/05/08 04:29:00;;;;;;;14.38;6.43;;;13.60;99.90;;;;;;5012016;28;20026;-79
2021/05/08 04:31:26;;;;;;;9.95;6.03;;;13.80;99.90;;;;;;5011663;28;20145;-79
2021/05/08 04:33:51;;;;;;;12.20;6.35;;;13.80;99.90;;;;;;5011440;28;20041;-78
2021/05/08 04:36:17;;;;;;;8.20;4.78;;;14.20;99.90;;;;;;5011732;28;20041;-81
2021/05/08 04:38:43;;;;;;;6.68;5.03;;;14.20;99.90;;;;;;5011530;28;20042;-79
2021/05/08 04:41:10;;;;;;;7.68;4.18;;;14.20;99.90;;;;;;5011746;28;20113;-79
2021/05/08 04:43:36;;;;;;;8.05;5.15;;;14.50;99.90;;;;;;5011354;28;20101;-78
2021/05/08 04:46:02;;;;;;;7.57;4.38;;;14.70;99.90;;;;;;5011484;28;20025;-81
2021/05/08 04:48:31;;;;;;;10.98;3.60;;;14.90;99.90;;;;;;5011651;28;20096;-79
2021/05/08 04:50:57;;;;;;;5.97;3.70;;;14.70;99.90;;;;;;5011369;28;20033;-80
2021/05/08 04:53:23;;;;;;;6.90;3.70;;;14.70;99.90;;;;;;5011677;28;20034;-80
2021/05/08 04:55:49;;;;;;;8.93;4.50;;;15.10;99.90;;;;;;5001684;28;20094;-77
2021/05/08 04:58:15;;;;;;;8.05;4.85;;;15.30;99.90;;;;;;4986952;28;20444;-77
2021/05/08 05:00:42;;;;;;;8.70;4.40;;;15.20;99.90;;;;;;4990190;28;20057;-77
2021/05/08 05:03:08;;;;;;;9.52;4.65;;;15.10;99.90;;;;;;4997944;28;20116;-78
2021/05/08 05:05:34;;;;;;;8.38;4.60;;;15.20;99.90;;;;;;5009679;28;20387;-77
2021/05/08 05:08:04;;;;;;;8.27;4.50;;;15.40;99.90;;;;;;5010604;28;20022;-76
2021/05/08 05:10:30;;;;;;;9.55;4.53;;;15.70;99.90;;;;;;5007114;28;20417;-78
2021/05/08 05:12:59;;;;;;;8.90;4.90;;;15.80;99.90;;;;;;5010700;28;20499;-77
2021/05/08 05:15:26;;;;;;;5.32;3.53;;;15.90;99.90;;;;;;5010974;28;20079;-78
2021/05/08 05:17:54;;;;;;;5.53;3.42;;;15.90;99.90;;;;;;5009477;28;20049;-77
2021/05/08 05:20:21;;;;;;;9.43;3.30;;;15.80;99.90;;;;;;4992260;28;20054;-77
2021/05/08 05:22:46;;;;;;;4.72;3.63;;;15.80;99.90;;;;;;5008789;28;20026;-80
2021/05/08 05:25:12;;;;;;;5.47;3.97;;;15.50;99.90;;;;;;5010065;28;20022;-77
2021/05/08 05:27:38;;;;;;;10.02;4.65;;;15.80;99.90;;;;;;5008383;28;20030;-79
2021/05/08 05:30:04;;;;;;;8.88;4.82;;;15.90;99.90;;;;;;5010939;28;20026;-76
2021/05/08 05:32:30;;;;;;;6.70;4.20;;;16.00;99.90;;;;;;5009682;28;20038;-77
2021/05/08 05:34:56;;;;;;;6.65;3.83;;;16.10;99.90;;;;;;5008676;28;20025;-78
2021/05/08 05:37:22;;;;;;;6.82;3.53;;;16.20;99.90;;;;;;5012473;28;20477;-77
2021/05/08 05:39:48;;;;;;;8.55;4.07;;;16.20;99.90;;;;;;5013199;28;20567;-77
2021/05/08 05:42:14;;;;;;;9.38;4.18;;;16.30;99.90;;;;;;5013453;28;20068;-76
2021/05/08 05:44:40;;;;;;;4.47;2.88;;;16.30;99.90;;;;;;5013425;28;20029;-77
2021/05/08 05:47:20;;;;;;;5.38;2.55;;;16.00;97.80;;;;;;5006229;28;20075;-76
2021/05/08 05:49:46;;;;;;;7.18;2.17;;;15.40;97.60;;;;;;4977644;28;20027;-78
2021/05/08 05:52:12;;;;;;;3.88;2.40;;;15.00;98.20;;;;;;4977399;28;20037;-77
2021/05/08 05:54:38;;;;;;;4.18;2.30;;;15.30;98.30;;;;;;4994216;28;20039;-74
2021/05/08 05:57:04;;;;;;;4.15;2.45;;;15.50;98.00;;;;;;4988366;28;20485;-77
2021/05/08 05:59:29;;;;;;;4.78;3.38;;;15.30;98.90;;;;;;5012782;28;20026;-77
2021/05/08 06:01:55;;;;;;;4.88;2.80;;;15.60;99.60;;;;;;4996435;28;20022;-78
2021/05/08 06:04:21;;;;;;;60.28;38.75;;;15.90;99.30;;;;;;5013347;28;20537;-79
2021/05/08 06:06:47;;;;;;;14.77;9.10;;;16.30;99.80;;;;;;5011260;28;20026;-78
2021/05/08 06:09:12;;;;;;;24.98;15.35;;;16.20;99.80;;;;;;5011799;28;20034;-77
2021/05/08 06:11:38;;;;;;;26.40;15.73;;;16.70;99.90;;;;;;5012595;28;20033;-77
2021/05/08 06:14:04;;;;;;;8.73;5.63;;;16.30;98.80;;;;;;5012382;28;20030;-77
2021/05/08 06:16:30;;;;;;;10.13;5.78;;;15.60;98.30;;;;;;5012618;28;20376;-76
2021/05/08 06:18:55;;;;;;;8.23;4.35;;;15.40;99.70;;;;;;5010150;28;20381;-77
2021/05/08 06:21:21;;;;;;;5.38;3.72;;;15.20;99.90;;;;;;5009902;28;20029;-79
2021/05/08 06:23:47;;;;;;;5.72;3.10;;;15.10;99.90;;;;;;4996125;28;20026;-77
2021/05/08 06:26:13;;;;;;;4.55;2.78;;;15.30;99.60;;;;;;4994940;28;20026;-77
2021/05/08 06:28:39;;;;;;;4.10;2.80;;;15.30;98.90;;;;;;5011683;28;20037;-78
2021/05/08 06:31:04;;;;;;;14.07;4.45;;;15.40;99.10;;;;;;5013314;28;20018;-78
2021/05/08 06:33:30;;;;;;;9.85;3.83;;;15.80;99.70;;;;;;5011152;28;20469;-78
2021/05/08 06:35:56;;;;;;;5.57;3.00;;;16.10;99.50;;;;;;4995678;28;20030;-79
2021/05/08 06:38:23;;;;;;;4.40;2.20;;;15.80;96.70;;;;;;4995638;28;20038;-80
2021/05/08 06:40:49;;;;;;;2.47;1.90;;;15.30;96.30;;;;;;5012429;28;20026;-79
2021/05/08 06:43:14;;;;;;;5.93;1.83;;;15.20;95.70;;;;;;5012526;28;20029;-79
2021/05/08 06:45:40;;;;;;;5.80;2.30;;;15.10;95.80;;;;;;5011481;28;20021;-80
2021/05/08 06:48:07;;;;;;;4.60;2.10;;;15.30;96.00;;;;;;4998217;28;20027;-79
2021/05/08 06:50:34;;;;;;;5.97;2.20;;;15.50;94.80;;;;;;4993323;28;20045;-79
2021/05/08 06:53:00;;;;;;;3.00;2.10;;;15.80;94.50;;;;;;4993120;28;20076;-79
2021/05/08 06:55:26;;;;;;;8.27;2.13;;;15.60;94.30;;;;;;4993320;28;20038;-80
2021/05/08 06:57:52;;;;;;;5.50;2.15;;;15.70;95.00;;;;;;5002167;28;20044;-79
2021/05/08 07:00:18;;;;;;;4.10;2.00;;;15.50;93.90;;;;;;5012599;28;20060;-78
2021/05/08 07:02:44;;;;;;;2.30;1.88;;;15.50;94.50;;;;;;5012488;28;20045;-78
2021/05/08 07:05:10;;;;;;;3.00;2.40;;;15.80;94.30;;;;;;5013214;28;20022;-78
2021/05/08 07:07:36;;;;;;;4.75;2.00;;;15.50;94.40;;;;;;5009652;28;20032;-78
2021/05/08 07:10:04;;;;;;;4.10;2.00;;;15.70;93.80;;;;;;5011299;28;20022;-79
2021/05/08 07:12:29;;;;;;;3.35;2.10;;;16.00;93.70;;;;;;4994164;28;20057;-76
2021/05/08 07:14:55;;;;;;;6.07;2.00;;;15.70;94.30;;;;;;5012642;28;20056;-76
2021/05/08 07:17:21;;;;;;;6.65;2.08;;;15.50;93.90;;;;;;5011347;28;20026;-77
2021/05/08 07:19:47;;;;;;;3.65;2.45;;;15.20;94.40;;;;;;4992246;28;20030;-79
2021/05/08 07:22:12;;;;;;;3.95;2.20;;;15.50;93.50;;;;;;4992207;28;20034;-78
2021/05/08 07:24:38;;;;;;;5.38;2.13;;;15.50;93.60;;;;;;4992714;28;20518;-78
2021/05/08 07:27:04;;;;;;;4.88;2.10;;;16.00;93.30;;;;;;5005302;28;20442;-79
2021/05/08 07:29:30;;;;;;;2.75;2.05;;;16.30;93.10;;;;;;5011703;28;20076;-79
2021/05/08 07:31:55;;;;;;;2.28;1.90;;;16.50;92.40;;;;;;5009157;28;20615;-79
2021/05/08 07:34:21;;;;;;;2.75;1.95;;;16.50;92.30;;;;;;5011876;28;20156;-78
2021/05/08 07:36:47;;;;;;;4.07;1.90;;;16.60;91.70;;;;;;5011708;28;20022;-81
2021/05/08 07:39:13;;;;;;;4.30;1.80;;;16.60;90.60;;;;;;4981560;28;20038;-80
2021/05/08 07:41:39;;;;;;;2.78;1.90;;;16.80;90.60;;;;;;5003000;28;20101;-79
2021/05/08 07:44:04;;;;;;;3.22;2.03;;;16.80;90.50;;;;;;5009247;28;20033;-79
2021/05/08 07:46:31;;;;;;;3.75;2.10;;;17.10;90.50;;;;;;4992884;28;20061;-79
2021/05/08 07:48:57;;;;;;;4.30;2.10;;;17.20;90.50;;;;;;4973718;28;20033;-79
2021/05/08 07:51:22;;;;;;;2.53;1.90;;;17.20;89.50;;;;;;4974643;28;20022;-80
2021/05/08 07:53:48;;;;;;;4.15;2.40;;;17.20;90.50;;;;;;4991599;28;20031;-80
2021/05/08 07:56:14;;;;;;;6.30;2.40;;;16.80;91.00;;;;;;4996850;28;20493;-81
2021/05/08 07:58:39;;;;;;;14.20;4.25;;;16.10;92.80;;;;;;5010089;28;20437;-81
2021/05/08 08:01:05;;;;;;;4.55;2.30;;;16.40;93.20;;;;;;4993383;28;20061;-82
2021/05/08 08:03:31;;;;;;;2.58;2.20;;;16.50;92.10;;;;;;5011859;28;20378;-83
2021/05/08 08:05:57;;;;;;;5.47;2.03;;;16.60;91.80;;;;;;5011804;28;20382;-81
2021/05/08 08:08:24;;;;;;;3.35;2.15;;;16.80;91.10;;;;;;5007278;28;20018;-77
2021/05/08 08:10:50;;;;;;;8.35;2.20;;;16.90;91.70;;;;;;4993147;28;20389;-81
2021/05/08 08:13:16;;;;;;;3.67;2.10;;;16.80;91.50;;;;;;5011302;28;20502;-79
2021/05/08 08:15:41;;;;;;;3.67;2.40;;;16.50;92.00;;;;;;5011406;28;20069;-79
2021/05/08 08:18:09;;;;;;;4.00;2.30;;;16.50;91.90;;;;;;4989900;28;20782;-78
2021/05/08 08:20:35;;;;;;;5.40;2.00;;;16.50;92.40;;;;;;4972664;28;20030;-77
2021/05/08 08:23:01;;;;;;;4.32;1.92;;;16.30;92.30;;;;;;4991669;28;20688;-79
2021/05/08 08:25:27;;;;;;;3.47;2.13;;;16.20;92.60;;;;;;4975493;28;20532;-77
2021/05/08 08:27:53;;;;;;;10.93;2.38;;;16.40;92.90;;;;;;5009428;28;20026;-78
2021/05/08 08:30:19;;;;;;;4.80;2.20;;;16.40;92.60;;;;;;5009877;28;20535;-79
2021/05/08 08:32:45;;;;;;;4.18;2.08;;;16.50;92.40;;;;;;5009465;28;20057;-79
2021/05/08 08:35:11;;;;;;;7.78;3.00;;;16.50;92.00;;;;;;5011237;28;20068;-78
2021/05/08 08:37:36;;;;;;;3.10;2.00;;;16.60;92.10;;;;;;5010152;28;20384;-76
2021/05/08 08:40:03;;;;;;;3.08;2.00;;;16.60;91.80;;;;;;5010294;28;20529;-77
2021/05/08 08:42:30;;;;;;;3.78;2.20;;;16.40;91.70;;;;;;5008453;28;20406;-78
2021/05/08 08:44:58;;;;;;;5.43;2.20;;;16.30;91.90;;;;;;5008541;28;20022;-79
2021/05/08 08:47:29;;;;;;;4.32;2.50;;;16.40;92.40;;;;;;5004530;28;20022;-79
2021/05/08 08:50:10;;;;;;;3.85;2.10;;;16.40;91.60;;;;;;5010055;28;20101;-78
2021/05/08 08:52:36;;;;;;;69.60;47.42;;;16.30;91.90;;;;;;5009228;28;20029;-77
2021/05/08 08:55:04;;;;;;;214.50;127.38;;;16.50;93.00;;;;;;5007125;28;20666;-76
2021/05/08 08:57:42;;;;;;;16.27;10.18;;;16.90;92.30;;;;;;5009023;28;20057;-79
2021/05/08 09:00:14;;;;;;;7.70;3.00;;;16.80;90.70;;;;;;5005829;28;20022;-84
2021/05/08 09:02:42;;;;;;;16.92;8.50;;;16.50;91.30;;;;;;5007287;28;20080;-77
2021/05/08 09:05:10;;;;;;;51.42;32.10;;;16.90;91.30;;;;;;5010342;28;20029;-80
2021/05/08 09:07:42;;;;;;;12.13;3.30;;;16.90;90.80;;;;;;5003786;28;20022;-79
2021/05/08 09:10:08;;;;;;;4.85;2.47;;;16.80;90.90;;;;;;5011122;28;20026;-81
2021/05/08 09:12:47;;;;;;;4.57;2.50;;;16.70;90.90;;;;;;5013428;28;20052;-81
2021/05/08 09:15:13;;;;;;;3.80;2.42;;;16.80;91.00;;;;;;5012375;28;20022;-77
2021/05/08 09:17:44;;;;;;;5.68;2.47;;;16.80;90.50;;;;;;5012718;28;20048;-81
2021/05/08 09:20:11;;;;;;;;;;;16.80;90.90;;;;;;5012680;28;20033;-80
2021/05/08 09:22:42;;;;;;;5.63;2.78;;;16.90;89.70;;;;;;5013859;28;19905;-81
2021/05/08 09:25:15;;;;;;;3.92;2.33;;;16.90;89.90;;;;;;5015124;28;20030;-82
2021/05/08 09:27:53;;;;;;;3.75;2.10;;;16.90;89.30;;;;;;4993362;28;20025;-81
2021/05/08 09:30:29;;;;;;;3.95;2.38;;;17.20;89.90;;;;;;4994576;28;20477;-81
2021/05/08 09:32:54;;;;;;;4.93;2.72;;;17.50;89.20;;;;;;5014399;28;20057;-81
2021/05/08 09:35:34;;;;;;;3.40;2.28;;;17.60;88.10;;;;;;5014731;28;20125;-81
2021/05/08 09:38:11;;;;;;;6.13;2.50;;;17.70;87.20;;;;;;5011768;28;20049;-81
2021/05/08 09:40:38;;;;;;;4.63;2.25;;;18.00;86.50;;;;;;5012914;28;20515;-80
2021/05/08 09:43:12;;;;;;;2.60;1.90;;;18.20;85.90;;;;;;5011752;28;20030;-80
2021/05/08 09:45:40;;;;;;;4.53;2.25;;;17.80;85.40;;;;;;4996705;28;20026;-80
2021/05/08 09:48:18;;;;;;;3.72;2.13;;;17.80;85.70;;;;;;5011742;28;20029;-80
2021/05/08 09:50:44;;;;;;;4.45;2.30;;;17.60;85.80;;;;;;5013880;28;20044;-78
2021/05/08 09:53:28;;;;;;;5.30;2.78;;;17.60;84.30;;;;;;4993403;28;20026;-80
2021/05/08 09:55:54;;;;;;;3.72;2.40;;;17.60;85.50;;;;;;5011989;28;20044;-79
2021/05/08 09:58:22;;;;;;;13.95;6.45;;;17.70;85.00;;;;;;5005800;28;20053;-81
2021/05/08 10:00:48;;;;;;;15.45;9.43;;;18.20;86.60;;;;;;4994233;28;20454;-80
2021/05/08 10:03:15;;;;;;;81.85;50.55;;;18.60;84.90;;;;;;5002803;28;20482;-80
2021/05/08 10:05:46;;;;;;;12.88;8.35;;;18.90;83.40;;;;;;5010833;28;20080;-80
2021/05/08 10:08:12;;;;;;;7.90;3.08;;;19.00;80.90;;;;;;4998074;28;20097;-79
2021/05/08 10:10:38;;;;;;;8.98;4.82;;;19.20;80.40;;;;;;4997126;28;20516;-78
2021/05/08 10:13:13;;;;;;;15.05;5.60;;;19.10;78.60;;;;;;5013918;28;20056;-79
2021/05/08 10:15:40;;;;;;;9.95;3.55;;;19.50;79.70;;;;;;5012751;28;20036;-76
2021/05/08 10:18:12;;;;;;;12.43;4.82;;;19.70;77.80;;;;;;5006115;28;20609;-77
2021/05/08 10:20:39;;;;;;;7.38;3.42;;;19.30;78.50;;;;;;4993684;28;20026;-83
2021/05/08 10:23:11;;;;;;;7.90;3.95;;;19.20;79.40;;;;;;4992812;28;20026;-80
2021/05/08 10:25:39;;;;;;;5.20;2.90;;;19.40;78.80;;;;;;4995806;28;20402;-82
2021/05/08 10:28:06;;;;;;;9.68;3.63;;;18.90;78.50;;;;;;5013161;28;20173;-80
2021/05/08 10:30:36;;;;;;;5.60;2.63;;;18.80;78.90;;;;;;5011779;28;20014;-82
2021/05/08 10:33:09;;;;;;;10.93;5.63;;;18.50;77.90;;;;;;5013965;28;20034;-83
2021/05/08 10:35:41;;;;;;;14.02;8.63;;;19.00;78.80;;;;;;5014254;28;20495;-85
2021/05/08 10:38:23;;;;;;;4.95;2.92;;;19.30;78.70;;;;;;5009709;28;20117;-80
2021/05/08 10:40:55;;;;;;;5.47;2.65;;;18.90;81.10;;;;;;5011362;28;20029;-80
2021/05/08 10:43:47;;;;;;;7.55;2.70;;;18.80;79.50;;;;;;5011537;28;20026;-83
2021/05/08 10:46:17;;;;;;;3.38;2.13;;;19.00;81.20;;;;;;5013523;28;20030;-82
2021/05/08 10:49:14;;;;;;;6.97;3.50;;;19.30;78.90;;;;;;5012584;28;20754;-82
2021/05/08 10:51:59;;;;;;;6.78;2.45;;;19.50;77.00;;;;;;5012224;28;20038;-83
2021/05/08 10:54:43;;;;;;;4.82;2.38;;;19.90;75.40;;;;;;5011148;28;20022;-84
2021/05/08 10:57:19;;;;;;;5.65;2.33;;;19.60;71.30;;;;;;5012141;28;20227;-77
2021/05/08 11:00:09;;;;;;;6.68;3.00;;;18.40;73.50;;;;;;4979106;28;20054;-80
2021/05/08 11:02:41;;;;;;;6.40;2.60;;;18.20;73.50;;;;;;4993375;28;20034;-77
2021/05/08 11:05:28;;;;;;;5.88;2.63;;;19.00;72.10;;;;;;4974015;28;20629;-80
2021/05/08 11:07:54;;;;;;;4.30;2.70;;;19.10;75.20;;;;;;4974114;28;20042;-80
2021/05/08 11:10:35;;;;;;;4.40;2.55;;;19.20;77.10;;;;;;4993658;28;20031;-82
2021/05/08 11:13:10;;;;;;;;;;;19.80;76.80;;;;;;4992578;28;20492;-80
2021/05/08 11:15:51;;;;;;;7.40;2.17;;;20.00;74.80;;;;;;5010746;28;19906;-80
2021/05/08 11:18:43;;;;;;;6.00;2.60;;;19.10;71.60;;;;;;5009262;28;20037;-80
2021/05/08 11:21:08;;;;;;;4.28;2.30;;;19.10;71.40;;;;;;5012206;28;20101;-78
2021/05/08 11:24:03;;;;;;;4.85;2.47;;;19.90;70.50;;;;;;5012828;28;20101;-81
2021/05/08 11:26:29;;;;;;;7.10;3.10;;;19.60;67.40;;;;;;5012233;28;20172;-79
2021/05/08 11:29:16;;;;;;;12.05;7.97;;;19.80;70.60;;;;;;4989779;28;20038;-81
2021/05/08 11:31:49;;;;;;;10.48;5.30;;;20.40;71.00;;;;;;4992916;28;20030;-80
2021/05/08 11:34:30;;;;;;;3.90;2.10;;;21.50;69.60;;;;;;4992048;28;20035;-79
2021/05/08 11:36:58;;;;;;;7.72;2.40;;;21.60;68.50;;;;;;4991558;28;20048;-79
2021/05/08 11:39:35;;;;;;;7.22;2.10;;;21.50;68.60;;;;;;4998062;28;20497;-78
2021/05/08 11:42:17;;;;;;;3.00;1.98;;;21.30;68.80;;;;;;5010432;28;20053;-79
2021/05/08 11:44:45;;;;;;;4.07;2.22;;;21.50;69.60;;;;;;5012159;28;20169;-81
2021/05/08 11:47:28;;;;;;;4.38;2.17;;;21.90;68.60;;;;;;5010600;28;20030;-80
2021/05/08 11:50:02;;;;;;;4.47;2.10;;;22.20;69.20;;;;;;5011941;28;20080;-80
2021/05/08 11:52:49;;;;;;;4.97;2.30;;;22.30;66.10;;;;;;5009918;28;20049;-79
2021/05/08 11:55:21;;;;;;;5.88;2.15;;;21.90;64.10;;;;;;5011233;28;20433;-79
2021/05/08 11:57:54;;;;;;;5.05;2.22;;;21.70;63.50;;;;;;5010173;28;20048;-78
2021/05/08 12:00:22;;;;;;;2.88;1.85;;;20.00;65.10;;;;;;5012284;28;20072;-78
2021/05/08 12:02:49;;;;;;;4.35;2.10;;;20.10;64.10;;;;;;4994582;28;20095;-79
2021/05/08 12:05:16;;;;;;;5.00;2.40;;;20.50;67.80;;;;;;5009514;28;20014;-79
2021/05/08 12:07:43;;;;;;;6.85;4.05;;;20.60;63.30;;;;;;5010376;28;20029;-80
2021/05/08 12:10:18;;;;;;;6.65;3.92;;;21.00;62.40;;;;;;5012118;28;20039;-79
2021/05/08 12:12:52;;;;;;;4.22;2.40;;;21.50;60.10;;;;;;5009470;28;20507;-81
2021/05/08 12:15:21;;;;;;;5.63;2.40;;;21.90;62.90;;;;;;5011079;28;20484;-82
2021/05/08 12:17:50;;;;;;;4.68;2.88;;;22.00;61.50;;;;;;5007537;28;20034;-81
2021/05/08 12:20:18;;;;;;;5.47;2.15;;;21.60;64.90;;;;;;5008471;28;20033;-80
2021/05/08 12:22:45;;;;;;;4.43;2.20;;;21.70;63.90;;;;;;4990902;28;20044;-79
2021/05/08 12:25:24;;;;;;;5.13;2.70;;;21.60;64.30;;;;;;5008541;28;20108;-83
2021/05/08 12:28:17;;;;;;;4.78;2.20;;;21.70;66.00;;;;;;5004242;28;20454;-80
2021/05/08 12:30:52;;;;;;;4.18;2.30;;;21.40;64.70;;;;;;5010981;28;20129;-80
2021/05/08 12:33:20;;;;;;;19.63;2.25;;;22.10;64.80;;;;;;5010834;28;20105;-81
2021/05/08 12:35:47;;;;;;;4.45;2.38;;;22.20;65.20;;;;;;5008007;28;20060;-82
2021/05/08 12:38:19;;;;;;;4.53;2.70;;;22.50;65.20;;;;;;5007095;28;20069;-85
2021/05/08 12:40:45;;;;;;;6.07;2.65;;;22.30;60.70;;;;;;5008567;28;20374;-80
2021/05/08 12:43:22;;;;;;;6.78;3.03;;;22.20;62.20;;;;;;4992900;28;20488;-80
2021/05/08 12:46:02;;;;;;;4.68;2.30;;;22.10;63.40;;;;;;5010986;28;20053;-79
2021/05/08 12:48:29;;;;;;;;;;;21.40;61.60;;;;;;4995975;28;20041;-84